Time;durP1;ratioP1;P1;durP2;ratioP2;P2;SDS_P1;SDS_P2;PMS_P1;PMS_P2;Temp;Humidity;BMP_temperature;BMP_pressure;BME280_temperature;BME280_humidity;BME280_pressure;Samples;Min_cycle;Max_cycle;Signal;HPM_P1;HPM_P2
2023/08/18 00:02:20;;;;;;;3.30;2.60;;;;;;;19.29;100.00;100227.83;105686;1267;61219;-75
2023/08/18 00:04:47;;;;;;;10.00;2.90;;;;;;;19.25;100.00;100221.70;105336;1267;61260;-74
2023/08/18 00:07:14;;;;;;;2.90;2.60;;;;;;;19.22;100.00;100221.70;105396;1267;74563;-74
2023/08/18 00:09:43;;;;;;;3.10;2.70;;;;;;;19.20;100.00;100221.82;106180;1267;70976;-75
2023/08/18 00:12:10;;;;;;;6.00;3.00;;;;;;;19.18;100.00;100217.31;105640;1272;71868;-75
2023/08/18 00:14:37;;;;;;;3.50;2.60;;;;;;;19.15;100.00;100216.39;105758;1267;61157;-75
2023/08/18 00:17:04;;;;;;;3.60;2.70;;;;;;;19.13;100.00;100217.23;105334;1267;61286;-76
2023/08/18 00:19:31;;;;;;;4.00;2.50;;;;;;;19.11;100.00;100215.58;105597;1267;74446;-76
2023/08/18 00:21:58;;;;;;;3.50;2.90;;;;;;;19.11;100.00;100215.79;106050;1267;71157;-74
2023/08/18 00:24:24;;;;;;;3.20;2.60;;;;;;;19.09;100.00;100212.48;105021;1267;72008;-75
2023/08/18 00:26:51;;;;;;;3.10;2.70;;;;;;;19.11;100.00;100216.85;105437;1271;61948;-75
2023/08/18 00:29:18;;;;;;;2.60;2.40;;;;;;;19.10;100.00;100212.58;105405;1267;61356;-75
2023/08/18 00:31:45;;;;;;;7.30;2.80;;;;;;;19.10;100.00;100210.66;105672;1267;75194;-75
2023/08/18 00:34:12;;;;;;;8.70;2.70;;;;;;;19.10;100.00;100213.86;105781;1267;70997;-75
2023/08/18 00:36:39;;;;;;;4.30;3.00;;;;;;;19.10;100.00;100212.98;105310;1267;72501;-75
2023/08/18 00:39:05;;;;;;;2.60;2.40;;;;;;;19.09;100.00;100212.48;105779;1267;61332;-74
2023/08/18 00:41:32;;;;;;;4.10;3.00;;;;;;;19.09;100.00;100210.04;105328;1267;61248;-75
2023/08/18 00:43:59;;;;;;;3.30;2.80;;;;;;;19.08;100.00;100210.59;105340;1271;75342;-75
2023/08/18 00:46:25;;;;;;;2.40;2.20;;;;;;;19.07;100.00;100208.85;106146;1267;70893;-75
2023/08/18 00:48:52;;;;;;;2.80;2.60;;;;;;;19.07;100.00;100206.08;105647;1267;72711;-74
2023/08/18 00:51:19;;;;;;;4.30;2.50;;;;;;;19.05;100.00;100205.45;105383;1271;61321;-74
2023/08/18 00:53:46;;;;;;;3.10;2.80;;;;;;;19.03;100.00;100203.09;105023;1267;61391;-75
2023/08/18 00:56:12;;;;;;;5.10;2.40;;;;;;;19.01;100.00;100203.38;105279;1267;73343;-74
2023/08/18 00:58:39;;;;;;;7.30;2.50;;;;;;;18.98;100.00;100202.29;105771;1267;71361;-75
2023/08/18 01:01:05;;;;;;;3.20;2.50;;;;;;;18.95;100.00;100201.79;105317;1267;61279;-75
2023/08/18 01:03:33;;;;;;;4.20;2.70;;;;;;;18.91;100.00;100209.41;105139;1267;61256;-74
2023/08/18 01:05:59;;;;;;;2.60;2.40;;;;;;;18.89;100.00;100209.06;105386;1267;61196;-75
2023/08/18 01:08:29;;;;;;;3.40;2.60;;;;;;;18.85;100.00;100204.66;105598;1267;75079;-74
2023/08/18 01:11:36;;;;;;;3.00;2.80;;;;;;;18.81;100.00;100207.18;105478;1270;69497;-74
2023/08/18 01:14:24;;;;;;;4.20;2.40;;;;;;;18.76;100.00;100205.14;105444;1275;72576;-75
2023/08/18 01:16:58;;;;;;;3.00;2.30;;;;;;;18.71;100.00;100208.83;105146;1273;61325;-74
2023/08/18 01:19:25;;;;;;;4.90;2.90;;;;;;;18.66;100.00;100208.02;105672;1268;61371;-75
2023/08/18 01:21:53;;;;;;;3.30;2.60;;;;;;;18.62;100.00;100207.73;105148;1267;75107;-75
2023/08/18 01:24:21;;;;;;;4.30;2.30;;;;;;;18.59;100.00;100206.64;105530;1267;71011;-75
2023/08/18 01:26:47;;;;;;;2.50;2.30;;;;;;;18.55;100.00;100210.01;105997;1267;74315;-75
2023/08/18 01:29:14;;;;;;;4.50;2.70;;;;;;;18.53;100.00;100210.34;105737;1267;61305;-74
2023/08/18 01:31:40;;;;;;;3.50;2.60;;;;;;;18.51;100.00;100207.99;105721;1267;61248;-75
2023/08/18 01:34:08;;;;;;;3.10;2.90;;;;;;;18.47;100.00;100208.21;105484;1267;74618;-75
2023/08/18 01:36:41;;;;;;;4.20;3.50;;;;;;;18.43;100.00;100213.77;105978;1269;70028;-75
2023/08/18 01:39:07;;;;;;;2.80;2.50;;;;;;;18.40;100.00;100218.71;105391;1267;72073;-75
2023/08/18 01:41:34;;;;;;;4.60;3.00;;;;;;;18.37;100.00;100215.31;105579;1272;61305;-75
2023/08/18 01:44:05;;;;;;;4.50;3.00;;;;;;;18.35;100.00;100219.70;105895;1267;61602;-75
2023/08/18 01:46:32;;;;;;;3.10;2.80;;;;;;;18.32;100.00;100221.81;105119;1267;75606;-75
2023/08/18 01:48:59;;;;;;;4.00;2.60;;;;;;;18.29;100.00;100223.09;105037;1267;70875;-75
2023/08/18 01:51:26;;;;;;;2.90;2.70;;;;;;;18.25;100.00;100225.74;105824;1266;72683;-75
2023/08/18 01:53:53;;;;;;;3.70;2.70;;;;;;;18.22;100.00;100225.92;105934;1267;61324;-74
2023/08/18 01:56:19;;;;;;;3.20;2.80;;;;;;;18.19;100.00;100223.42;106059;1266;61270;-76
2023/08/18 01:58:46;;;;;;;3.00;2.70;;;;;;;18.17;100.00;100226.39;105132;1267;74016;-75
2023/08/18 02:01:12;;;;;;;4.70;2.70;;;;;;;18.14;100.00;100226.56;105690;1267;70957;-73
2023/08/18 02:03:39;;;;;;;7.70;3.00;;;;;;;18.11;100.00;100226.02;105313;1267;72751;-74
2023/08/18 02:06:06;;;;;;;6.40;3.10;;;;;;;18.07;100.00;100227.14;105376;1267;61375;-75
2023/08/18 02:08:34;;;;;;;5.30;3.10;;;;;;;18.04;100.00;100231.73;106034;1267;60320;-76
2023/08/18 02:11:02;;;;;;;6.10;3.60;;;;;;;18.02;100.00;100233.77;105731;1267;75201;-74
2023/08/18 02:13:30;;;;;;;3.80;2.60;;;;;;;17.98;100.00;100235.38;105540;1271;71063;-75
2023/08/18 02:15:57;;;;;;;6.90;2.40;;;;;;;17.94;100.00;100235.97;105671;1267;72615;-75
2023/08/18 02:18:26;;;;;;;3.00;2.80;;;;;;;17.90;100.00;100239.36;104937;1267;61289;-74
2023/08/18 02:20:59;;;;;;;2.90;2.70;;;;;;;17.87;100.00;100239.73;105395;1267;61222;-76
2023/08/18 02:23:28;;;;;;;6.20;2.80;;;;;;;17.83;100.00;100240.63;105634;1267;75028;-76
2023/08/18 02:26:02;;;;;;;3.10;2.80;;;;;;;17.81;100.00;100241.25;105270;1272;70213;-74
2023/08/18 02:28:29;;;;;;;7.80;2.70;;;;;;;17.76;100.00;100242.56;105996;1268;70239;-75
2023/08/18 02:31:03;;;;;;;6.30;3.00;;;;;;;17.73;100.00;100245.56;106113;1267;61251;-75
2023/08/18 02:33:31;;;;;;;4.20;2.60;;;;;;;17.70;100.00;100248.75;105590;1267;61242;-75
2023/08/18 02:36:00;;;;;;;2.50;2.30;;;;;;;17.67;100.00;100254.04;105797;1267;73428;-75
2023/08/18 02:38:28;;;;;;;4.10;3.20;;;;;;;17.66;100.00;100256.39;105373;1271;71107;-75
2023/08/18 02:40:54;;;;;;;3.40;3.00;;;;;;;17.64;100.00;100258.46;105374;1267;71212;-74
2023/08/18 02:43:22;;;;;;;2.80;2.50;;;;;;;17.63;100.00;100257.62;104948;1267;61375;-75
2023/08/18 02:45:48;;;;;;;4.20;2.90;;;;;;;17.62;100.00;100259.42;105361;1271;61212;-77
2023/08/18 02:48:16;;;;;;;4.10;2.60;;;;;;;17.63;100.00;100258.36;105749;1267;73898;-76
2023/08/18 02:50:42;;;;;;;2.70;2.50;;;;;;;17.62;100.00;100261.38;105751;1267;70934;-73
2023/08/18 02:53:09;;;;;;;3.10;2.50;;;;;;;17.63;100.00;100261.66;105002;1267;72798;-74
2023/08/18 02:55:36;;;;;;;6.00;3.10;;;;;;;17.64;100.00;100262.14;105317;1267;61262;-74
2023/08/18 02:58:03;;;;;;;6.40;3.00;;;;;;;17.65;100.00;100265.47;105712;1267;61283;-75
2023/08/18 03:00:31;;;;;;;4.00;2.90;;;;;;;17.68;100.00;100269.09;106165;1266;74662;-75
2023/08/18 03:02:58;;;;;;;4.40;2.60;;;;;;;17.69;100.00;100268.14;105415;1269;70900;-75
2023/08/18 03:05:26;;;;;;;3.20;2.90;;;;;;;17.71;100.00;100270.33;105332;1267;72560;-75
2023/08/18 03:07:52;;;;;;;4.80;2.80;;;;;;;17.73;100.00;100269.17;105784;1267;61309;-75
2023/08/18 03:10:19;;;;;;;3.20;2.80;;;;;;;17.75;100.00;100269.61;105642;1267;59330;-75
2023/08/18 03:12:45;;;;;;;3.40;3.10;;;;;;;17.76;100.00;100264.75;105423;1270;73721;-75
2023/08/18 03:15:13;;;;;;;6.00;3.30;;;;;;;17.77;100.00;100267.34;105777;1267;70853;-74
2023/08/18 03:17:40;;;;;;;2.90;2.60;;;;;;;17.79;100.00;100269.17;105457;1267;72871;-75
2023/08/18 03:20:07;;;;;;;3.10;2.80;;;;;;;17.81;100.00;100273.69;104923;1268;61385;-75
2023/08/18 03:22:34;;;;;;;3.00;2.80;;;;;;;17.83;100.00;100271.45;105729;1267;61175;-75
2023/08/18 03:25:02;;;;;;;4.40;2.80;;;;;;;17.84;100.00;100272.83;105772;1267;73306;-75
2023/08/18 03:27:30;;;;;;;3.00;2.70;;;;;;;17.86;100.00;100269.77;105699;1267;71036;-74
2023/08/18 03:29:58;;;;;;;3.20;3.00;;;;;;;17.87;100.00;100275.73;105088;1267;72692;-74
2023/08/18 03:32:25;;;;;;;4.90;3.20;;;;;;;17.89;100.00;100279.89;105403;1267;61592;-73
2023/08/18 03:34:54;;;;;;;3.90;2.70;;;;;;;17.90;100.00;100278.93;105066;1267;61368;-74
2023/08/18 03:37:20;;;;;;;3.90;2.90;;;;;;;17.93;100.00;100279.15;105387;1267;73772;-74
2023/08/18 03:39:47;;;;;;;7.70;3.30;;;;;;;17.96;100.00;100282.89;106159;1268;70978;-76
2023/08/18 03:42:14;;;;;;;4.10;3.30;;;;;;;17.99;100.00;100280.95;105374;1270;70467;-75
2023/08/18 03:44:41;;;;;;;5.60;3.20;;;;;;;18.03;100.00;100282.88;105903;1267;61872;-73
2023/08/18 03:47:08;;;;;;;10.70;2.80;;;;;;;18.07;100.00;100282.48;105020;1271;61303;-75
2023/08/18 03:49:35;;;;;;;6.60;2.90;;;;;;;18.10;100.00;100283.90;104948;1267;74508;-74
2023/08/18 03:52:02;;;;;;;7.90;3.20;;;;;;;18.16;100.00;100289.48;106025;1267;71143;-75
2023/08/18 03:54:29;;;;;;;4.90;3.10;;;;;;;18.21;100.00;100289.92;105709;1271;72609;-75
2023/08/18 03:56:55;;;;;;;4.10;3.10;;;;;;;18.27;100.00;100290.87;105353;1272;61392;-75
2023/08/18 03:59:22;;;;;;;5.90;3.70;;;;;;;18.32;100.00;100294.11;105027;1271;61294;-75
2023/08/18 04:01:49;;;;;;;9.30;4.20;;;;;;;18.39;100.00;100291.80;105814;1267;73866;-74
2023/08/18 04:04:15;;;;;;;9.80;5.20;;;;;;;18.47;100.00;100290.64;106103;1267;69848;-74
2023/08/18 04:06:42;;;;;;;9.10;5.10;;;;;;;18.56;100.00;100295.83;105334;1267;71399;-75
2023/08/18 04:09:15;;;;;;;8.40;4.40;;;;;;;18.65;100.00;100299.58;105328;1267;62008;-74
2023/08/18 04:11:43;;;;;;;10.20;4.30;;;;;;;18.74;100.00;100305.66;105506;1267;61402;-74
2023/08/18 04:14:10;;;;;;;10.30;4.70;;;;;;;18.84;100.00;100307.98;105345;1268;74384;-74
2023/08/18 04:16:38;;;;;;;9.60;4.50;;;;;;;18.94;100.00;100312.95;105331;1271;71366;-76
2023/08/18 04:19:04;;;;;;;11.50;4.50;;;;;;;19.03;100.00;100313.48;105371;1267;72578;-75
2023/08/18 04:21:33;;;;;;;7.40;4.10;;;;;;;19.14;100.00;100310.92;105482;1267;61871;-76
2023/08/18 04:24:00;;;;;;;10.20;4.40;;;;;;;19.23;100.00;100314.48;105946;1271;59299;-75
2023/08/18 04:26:28;;;;;;;9.30;4.30;;;;;;;19.32;100.00;100315.58;105430;1268;73487;-73
2023/08/18 04:28:54;;;;;;;5.80;4.20;;;;;;;19.41;100.00;100315.73;105843;1267;70669;-75
2023/08/18 04:31:21;;;;;;;7.20;4.20;;;;;;;19.51;100.00;100312.30;105820;1267;72732;-75
2023/08/18 04:33:52;;;;;;;10.30;4.30;;;;;;;19.61;100.00;100308.15;105748;1267;62355;-75
2023/08/18 04:36:19;;;;;;;8.50;4.00;;;;;;;19.71;100.00;100311.70;105414;1267;61236;-75
2023/08/18 04:38:46;;;;;;;9.10;4.20;;;;;;;19.82;100.00;100310.69;105949;1267;74828;-75
2023/08/18 04:41:19;;;;;;;12.20;4.90;;;;;;;19.92;100.00;100304.17;105689;1267;71022;-75
2023/08/18 04:43:48;;;;;;;6.60;4.20;;;;;;;20.03;100.00;100302.44;105510;1267;72550;-73
2023/08/18 04:46:16;;;;;;;7.50;4.30;;;;;;;20.13;100.00;100302.02;105191;1267;61225;-77
2023/08/18 04:48:43;;;;;;;8.60;3.90;;;;;;;20.23;100.00;100298.36;105348;1267;61208;-74
2023/08/18 04:51:10;;;;;;;7.10;3.80;;;;;;;20.33;100.00;100296.36;105670;1268;74489;-75
2023/08/18 04:53:37;;;;;;;7.90;3.90;;;;;;;20.43;100.00;100289.66;105353;1268;70765;-76
2023/08/18 04:56:04;;;;;;;6.80;4.00;;;;;;;20.53;100.00;100285.66;105346;1267;72459;-74
2023/08/18 04:58:31;;;;;;;12.00;3.60;;;;;;;20.62;100.00;100288.27;105318;1267;62348;-75
2023/08/18 05:01:01;;;;;;;8.60;4.50;;;;;;;20.73;100.00;100288.46;105699;1267;61384;-76
2023/08/18 05:03:28;;;;;;;9.90;4.30;;;;;;;20.84;100.00;100291.91;104870;1273;74582;-75
2023/08/18 05:06:09;;;;;;;9.20;3.80;;;;;;;20.94;100.00;100295.15;105304;1267;71058;-75
2023/08/18 05:08:36;;;;;;;9.50;4.30;;;;;;;21.04;100.00;100291.30;105699;1267;71175;-75
2023/08/18 05:11:07;;;;;;;7.70;3.50;;;;;;;21.15;100.00;100289.67;105675;1267;61408;-75
2023/08/18 05:13:34;;;;;;;10.80;4.40;;;;;;;21.25;100.00;100282.60;104994;1267;61374;-75
2023/08/18 05:16:01;;;;;;;14.50;5.40;;;;;;;21.35;100.00;100282.27;105551;1267;74597;-75
2023/08/18 05:18:30;;;;;;;12.70;5.00;;;;;;;21.45;100.00;100280.36;105327;1268;70986;-74
2023/08/18 05:20:58;;;;;;;18.60;5.30;;;;;;;21.54;100.00;100279.23;105685;1267;72725;-75
2023/08/18 05:23:25;;;;;;;12.10;5.10;;;;;;;21.62;100.00;100276.52;105192;1267;61288;-74
2023/08/18 05:25:54;;;;;;;16.20;5.20;;;;;;;21.71;100.00;100279.34;105696;1271;61363;-74
2023/08/18 05:28:21;;;;;;;13.60;4.70;;;;;;;21.81;100.00;100275.74;105764;1267;74711;-74
2023/08/18 05:30:48;;;;;;;9.60;4.30;;;;;;;21.91;100.00;100270.43;105685;1267;71050;-75
2023/08/18 05:33:15;;;;;;;10.90;4.70;;;;;;;22.01;100.00;100266.89;105793;1267;72663;-73
2023/08/18 05:35:41;;;;;;;11.50;3.70;;;;;;;22.12;100.00;100264.87;105360;1269;61330;-75
2023/08/18 05:38:12;;;;;;;11.50;3.70;;;;;;;22.22;100.00;100260.93;105678;1269;61235;-76
2023/08/18 05:40:45;;;;;;;11.70;4.30;;;;;;;22.33;100.00;100259.86;105704;1267;74749;-75
2023/08/18 05:43:13;;;;;;;12.70;4.00;;;;;;;22.43;100.00;100261.23;106027;1268;61299;-74
2023/08/18 05:45:42;;;;;;;7.50;3.70;;;;;;;22.52;100.00;100254.52;105755;1268;72645;-75
2023/08/18 05:48:09;;;;;;;10.90;4.00;;;;;;;22.60;100.00;100254.84;105766;1267;61322;-76
2023/08/18 05:50:36;;;;;;;6.50;3.40;;;;;;;22.67;100.00;100253.45;105496;1267;61270;-75
2023/08/18 05:53:03;;;;;;;8.40;3.30;;;;;;;22.75;100.00;100251.94;105453;1267;74792;-75
2023/08/18 05:55:30;;;;;;;9.40;3.50;;;;;;;22.83;100.00;100248.88;105592;1267;70042;-76
2023/08/18 05:58:01;;;;;;;11.20;3.70;;;;;;;22.91;100.00;100246.14;105370;1271;72556;-75
2023/08/18 06:00:28;;;;;;;7.00;3.70;;;;;;;22.98;100.00;100243.27;105725;1267;61250;-75
2023/08/18 06:02:55;;;;;;;5.40;3.70;;;;;;;23.06;100.00;100244.68;105873;1267;61263;-75
2023/08/18 06:05:23;;;;;;;6.60;3.60;;;;;;;23.13;100.00;100247.69;105154;1272;74692;-75
2023/08/18 06:07:49;;;;;;;11.40;3.40;;;;;;;23.21;100.00;100244.83;105161;1267;70059;-75
2023/08/18 06:10:16;;;;;;;8.70;3.80;;;;;;;23.28;100.00;100246.38;105574;1267;72279;-74
2023/08/18 06:12:43;;;;;;;4.20;3.90;;;;;;;23.36;100.00;100247.75;104983;1267;61299;-75
2023/08/18 06:15:11;;;;;;;4.00;3.10;;;;;;;23.45;100.00;100249.40;105412;1267;61315;-75
2023/08/18 06:17:37;;;;;;;11.30;3.50;;;;;;;23.53;100.00;100245.05;105016;1271;74521;-74
2023/08/18 06:20:04;;;;;;;8.60;4.00;;;;;;;23.61;100.00;100247.63;105014;1267;61289;-76
2023/08/18 06:22:31;;;;;;;8.40;3.50;;;;;;;23.70;100.00;100242.45;105921;1268;72104;-75
2023/08/18 06:24:58;;;;;;;5.60;3.30;;;;;;;23.81;100.00;100242.34;105066;1267;61345;-74
2023/08/18 06:27:25;;;;;;;9.10;3.60;;;;;;;23.90;100.00;100243.77;106339;1267;61289;-74
2023/08/18 06:29:52;;;;;;;6.40;3.20;;;;;;;24.00;100.00;100238.40;105369;1271;74835;-74
2023/08/18 06:32:19;;;;;;;10.20;2.90;;;;;;;24.10;100.00;100244.71;105729;1271;71490;-75
2023/08/18 06:34:46;;;;;;;6.50;3.30;;;;;;;24.21;100.00;100239.25;105012;1269;70906;-75
2023/08/18 06:37:12;;;;;;;5.00;2.70;;;;;;;24.27;100.00;100238.33;105691;1267;61814;-75
2023/08/18 06:39:39;;;;;;;6.80;3.20;;;;;;;24.33;100.00;100240.42;105778;1267;61341;-75
2023/08/18 06:42:06;;;;;;;6.40;3.20;;;;;;;24.38;100.00;100240.73;105983;1270;74769;-75
2023/08/18 06:44:34;;;;;;;8.20;3.20;;;;;;;24.44;100.00;100240.40;105148;1267;61381;-75
2023/08/18 06:47:01;;;;;;;10.50;3.10;;;;;;;24.52;100.00;100241.95;105726;1271;72729;-75
2023/08/18 06:49:28;;;;;;;8.50;3.20;;;;;;;24.58;100.00;100237.70;105385;1267;61406;-76
2023/08/18 06:51:55;;;;;;;12.10;2.80;;;;;;;24.65;100.00;100238.25;105165;1267;61389;-75
2023/08/18 06:54:21;;;;;;;5.00;2.90;;;;;;;24.72;100.00;100239.42;105743;1268;74288;-76
2023/08/18 06:56:48;;;;;;;8.00;3.10;;;;;;;24.81;100.00;100237.95;105529;1268;61233;-75
2023/08/18 06:59:15;;;;;;;12.30;3.20;;;;;;;24.93;100.00;100237.50;105873;1267;72349;-75
2023/08/18 07:01:41;;;;;;;13.70;3.40;;;;;;;25.06;100.00;100238.20;105691;1267;61383;-76
2023/08/18 07:04:08;;;;;;;7.80;3.20;;;;;;;25.20;100.00;100240.65;105803;1267;61297;-76
2023/08/18 07:06:35;;;;;;;7.30;3.30;;;;;;;25.28;100.00;100237.30;105472;1271;74475;-75
2023/08/18 07:09:03;;;;;;;11.70;4.10;;;;;;;25.35;100.00;100239.26;105592;1267;71156;-75
2023/08/18 07:11:30;;;;;;;6.90;3.00;;;;;;;25.40;100.00;100243.60;105585;1267;71255;-74
2023/08/18 07:13:57;;;;;;;8.80;3.30;;;;;;;25.48;100.00;100243.31;105727;1270;61337;-75
2023/08/18 07:16:23;;;;;;;15.60;2.90;;;;;;;25.59;100.00;100243.83;105398;1267;61386;-75
2023/08/18 07:18:50;;;;;;;11.00;2.70;;;;;;;25.71;100.00;100243.12;105289;1269;74567;-74
2023/08/18 07:21:17;;;;;;;11.30;3.50;;;;;;;25.82;100.00;100245.10;105295;1267;70969;-74
2023/08/18 07:23:44;;;;;;;5.90;2.80;;;;;;;25.89;100.00;100245.38;105718;1267;71479;-74
2023/08/18 07:26:11;;;;;;;9.30;3.00;;;;;;;25.93;100.00;100241.71;106118;1267;61299;-76
2023/08/18 07:28:38;;;;;;;7.10;3.00;;;;;;;25.95;100.00;100241.60;105383;1267;61281;-75
2023/08/18 07:31:05;;;;;;;13.10;2.90;;;;;;;26.00;100.00;100241.22;105448;1271;74951;-75
2023/08/18 07:33:32;;;;;;;5.90;3.00;;;;;;;26.08;100.00;100242.83;105876;1267;70191;-75
2023/08/18 07:35:58;;;;;;;11.40;2.80;;;;;;;26.18;100.00;100243.02;106197;1267;72785;-75
2023/08/18 07:38:25;;;;;;;12.70;3.30;;;;;;;26.27;100.00;100243.86;105096;1267;61187;-75
2023/08/18 07:40:52;;;;;;;11.10;3.00;;;;;;;26.34;100.00;100237.46;105814;1267;61504;-75
2023/08/18 07:43:19;;;;;;;5.50;3.20;;;;;;;26.42;100.00;100233.01;105449;1271;74488;-75
2023/08/18 07:45:45;;;;;;;5.50;3.00;;;;;;;26.50;100.00;100231.95;105629;1267;61416;-74
2023/08/18 07:48:12;;;;;;;4.00;2.60;;;;;;;26.59;100.00;100233.80;105596;1267;71198;-74
2023/08/18 07:50:42;;;;;;;7.50;3.00;;;;;;;26.69;100.00;100234.05;105078;1269;61359;-74
2023/08/18 07:53:09;;;;;;;3.60;2.60;;;;;;;26.81;100.00;100232.59;106198;1267;61247;-75
2023/08/18 07:55:36;;;;;;;8.70;2.70;;;;;;;26.91;100.00;100234.14;105716;1271;61320;-74
2023/08/18 07:58:04;;;;;;;6.40;3.00;;;;;;;27.02;100.00;100235.83;105077;1269;70922;-74
2023/08/18 08:00:32;;;;;;;7.50;2.50;;;;;;;27.16;100.00;100231.02;105065;1267;72513;-74
2023/08/18 08:02:59;;;;;;;3.60;1.90;;;;;;;27.28;100.00;100230.89;105595;1267;61261;-75
2023/08/18 08:05:26;;;;;;;6.50;2.10;;;;;;;27.42;100.00;100227.52;105746;1267;61213;-76
2023/08/18 08:07:53;;;;;;;4.50;1.90;;;;;;;27.52;100.00;100225.08;105836;1267;74529;-76
2023/08/18 08:10:22;;;;;;;5.80;1.90;;;;;;;27.62;100.00;100224.17;105945;1267;71998;-73
2023/08/18 08:12:48;;;;;;;5.20;2.10;;;;;;;27.69;100.00;100223.34;105505;1271;72601;-74
2023/08/18 08:15:16;;;;;;;8.90;1.90;;;;;;;27.75;100.00;100222.95;105441;1270;61354;-75
2023/08/18 08:17:43;;;;;;;8.90;1.90;;;;;;;27.82;100.00;100218.48;105455;1271;60548;-75
2023/08/18 08:20:16;;;;;;;8.90;2.30;;;;;;;27.91;100.00;100221.27;105614;1267;74473;-75
2023/08/18 08:22:45;;;;;;;10.70;2.90;;;;;;;27.98;100.00;100220.16;106038;1267;71252;-75
2023/08/18 08:25:12;;;;;;;6.20;2.20;;;;;;;28.04;100.00;100216.58;105544;1268;72681;-74
2023/08/18 08:27:39;;;;;;;5.90;3.40;;;;;;;28.10;100.00;100217.78;105283;1271;61271;-75
2023/08/18 08:30:08;;;;;;;9.90;2.10;;;;;;;28.16;100.00;100216.11;105628;1269;61373;-74
2023/08/18 08:32:37;;;;;;;7.00;2.10;;;;;;;28.19;100.00;100216.22;105605;1269;66102;-75
2023/08/18 08:35:04;;;;;;;8.30;2.30;;;;;;;28.15;100.00;100215.98;105899;1270;61272;-75
2023/08/18 08:37:35;;;;;;;4.80;2.10;;;;;;;28.15;100.00;100214.05;105288;1267;63947;-75
2023/08/18 08:40:06;;;;;;;5.50;2.20;;;;;;;28.23;100.00;100212.60;105353;1268;61414;-78
2023/08/18 08:42:32;;;;;;;4.70;1.90;;;;;;;28.34;100.00;100210.79;105575;1268;61272;-76
2023/08/18 08:44:59;;;;;;;7.40;1.80;;;;;;;28.44;100.00;100211.36;105617;1271;74638;-75
2023/08/18 08:47:27;;;;;;;5.80;2.10;;;;;;;28.47;100.00;100212.88;106189;1267;62446;-74
2023/08/18 08:49:58;;;;;;;3.40;2.10;;;;;;;28.46;100.00;100210.43;106189;1269;64357;-76
2023/08/18 08:52:25;;;;;;;3.20;1.60;;;;;;;28.42;100.00;100213.09;105119;1267;61294;-75
2023/08/18 08:54:58;;;;;;;6.40;1.90;;;;;;;28.36;100.00;100205.11;105073;1268;61374;-75
2023/08/18 08:57:25;;;;;;;3.00;1.70;;;;;;;28.28;100.00;100205.41;105271;1268;65926;-74
2023/08/18 08:59:52;;;;;;;5.50;1.70;;;;;;;28.25;100.00;100205.90;106090;1267;62537;-75
2023/08/18 09:02:20;;;;;;;8.70;2.10;;;;;;;28.28;100.00;100207.00;105129;1271;63864;-75
2023/08/18 09:04:47;;;;;;;3.90;1.50;;;;;;;28.38;100.00;100202.96;105451;1272;61158;-74
2023/08/18 09:07:14;;;;;;;2.10;1.30;;;;;;;28.50;100.00;100203.41;105813;1269;61208;-76
2023/08/18 09:09:42;;;;;;;7.30;1.80;;;;;;;28.66;100.00;100201.87;105432;1274;65904;-77
2023/08/18 09:12:10;;;;;;;5.10;1.50;;;;;;;28.80;100.00;100200.31;105690;1269;71126;-76
2023/08/18 09:14:38;;;;;;;5.20;1.10;;;;;;;28.89;100.00;100197.86;105883;1269;63919;-76
2023/08/18 09:17:05;;;;;;;7.30;1.70;;;;;;;29.00;100.00;100200.39;105710;1268;61234;-76
2023/08/18 09:19:32;;;;;;;5.20;1.70;;;;;;;29.10;100.00;100200.65;105828;1268;61300;-74
2023/08/18 09:22:00;;;;;;;7.80;1.50;;;;;;;29.18;100.00;100200.73;105574;1267;64953;-75
2023/08/18 09:24:30;;;;;;;4.30;1.60;;;;;;;29.21;100.00;100200.27;105832;1268;61405;-75
2023/08/18 09:27:07;;;;;;;4.30;1.40;;;;;;;29.13;100.00;100198.17;105799;1267;62779;-76
2023/08/18 09:29:34;;;;;;;2.50;1.30;;;;;;;29.06;100.00;100194.95;106213;1267;61261;-75
2023/08/18 09:32:02;;;;;;;6.40;1.90;;;;;;;29.10;100.00;100197.42;106242;1269;61225;-76
2023/08/18 09:34:31;;;;;;;8.00;1.50;;;;;;;29.22;100.00;100194.61;105978;1269;64886;-74
2023/08/18 09:36:59;;;;;;;9.10;1.30;;;;;;;29.37;100.00;100193.43;105851;1269;62449;-75
2023/08/18 09:39:25;;;;;;;5.30;1.50;;;;;;;29.52;100.00;100193.88;105334;1271;62656;-73
2023/08/18 09:41:52;;;;;;;2.90;1.10;;;;;;;29.67;100.00;100190.89;105262;1271;61437;-75
2023/08/18 09:44:24;;;;;;;1.50;1.10;;;;;;;29.82;100.00;100189.91;105532;1271;61287;-75
2023/08/18 09:46:57;;;;;;;4.70;1.30;;;;;;;29.95;100.00;100187.53;105461;1271;75294;-76
2023/08/18 09:49:24;;;;;;;4.10;1.40;;;;;;;30.09;100.00;100183.98;105260;1269;62339;-74
2023/08/18 09:51:53;;;;;;;4.00;1.30;;;;;;;30.22;100.00;100176.98;105851;1269;63932;-75
2023/08/18 09:54:20;;;;;;;10.00;1.50;;;;;;;30.30;100.00;100177.51;105751;1268;61230;-75
2023/08/18 09:56:49;;;;;;;2.80;1.70;;;;;;;30.38;100.00;100180.02;105250;1269;61407;-75
2023/08/18 09:59:20;;;;;;;5.60;1.60;;;;;;;30.44;100.00;100175.90;105771;1268;64580;-75
2023/08/18 10:01:52;;;;;;;7.50;1.70;;;;;;;30.43;100.00;100178.54;106394;1267;61150;-75
2023/08/18 10:04:24;;;;;;;4.10;1.40;;;;;;;30.38;100.00;100182.30;105641;1267;63876;-75
2023/08/18 10:06:53;;;;;;;5.70;1.40;;;;;;;30.39;100.00;100183.48;105771;1267;61267;-76
2023/08/18 10:09:22;;;;;;;5.70;1.40;;;;;;;30.42;100.00;100185.16;105793;1268;61296;-76
2023/08/18 10:11:50;;;;;;;4.80;1.60;;;;;;;30.50;100.00;100183.58;105943;1269;64570;-76
2023/08/18 10:14:21;;;;;;;6.40;1.40;;;;;;;30.55;100.00;100185.05;105973;1267;71556;-76
2023/08/18 10:16:48;;;;;;;4.10;1.60;;;;;;;30.55;100.00;100182.65;106268;1269;63746;-75
2023/08/18 10:19:15;;;;;;;7.80;1.40;;;;;;;30.62;100.00;100180.84;105688;1268;61359;-74
2023/08/18 10:21:42;;;;;;;3.60;1.20;;;;;;;30.71;100.00;100177.64;105675;1269;61349;-75
2023/08/18 10:24:08;;;;;;;3.10;1.40;;;;;;;30.84;100.00;100170.08;106109;1267;64892;-76
2023/08/18 10:26:37;;;;;;;2.80;1.30;;;;;;;30.98;98.20;100171.64;105790;1274;62335;-76
2023/08/18 10:29:14;;;;;;;4.70;1.50;;;;;;;31.11;99.45;100170.09;105677;1273;63253;-75
2023/08/18 10:31:56;;;;;;;3.10;1.30;;;;;;;31.26;99.94;100168.95;106118;1269;61398;-75
2023/08/18 10:34:23;;;;;;;8.00;1.40;;;;;;;31.37;97.67;100160.23;105882;1267;61197;-74
2023/08/18 10:36:59;;;;;;;4.00;1.40;;;;;;;31.44;94.35;100158.88;106103;1268;64574;-76
2023/08/18 10:39:26;;;;;;;9.20;2.20;;;;;;;31.43;86.75;100165.02;106051;1267;61309;-75
2023/08/18 10:42:13;;;;;;;3.10;1.60;;;;;;;31.33;86.38;100164.38;105957;1271;64163;-76
2023/08/18 10:44:59;;;;;;;2.70;1.40;;;;;;;31.18;87.19;100164.98;105981;1267;61311;-76
2023/08/18 10:47:32;;;;;;;2.70;1.30;;;;;;;31.00;90.47;100166.24;105731;1269;61150;-76
2023/08/18 10:49:59;;;;;;;5.80;1.50;;;;;;;30.86;89.91;100164.68;105383;1271;65962;-74
2023/08/18 10:52:35;;;;;;;3.40;1.20;;;;;;;30.76;91.80;100165.35;106284;1268;62431;-74
2023/08/18 10:55:03;;;;;;;11.10;1.60;;;;;;;30.66;96.80;100162.83;105376;1271;64071;-76
2023/08/18 10:57:30;;;;;;;4.50;1.20;;;;;;;30.55;96.51;100160.36;105556;1267;61273;-75
2023/08/18 10:59:57;;;;;;;2.60;1.40;;;;;;;30.44;98.19;100161.30;105439;1269;61313;-75
2023/08/18 11:02:23;;;;;;;4.50;1.40;;;;;;;30.34;100.00;100159.56;105506;1271;66498;-75
2023/08/18 11:04:51;;;;;;;8.90;1.50;;;;;;;30.32;100.00;100157.63;106004;1269;62184;-76
2023/08/18 11:07:19;;;;;;;3.10;1.30;;;;;;;30.35;100.00;100161.83;105947;1267;63925;-75
2023/08/18 11:09:45;;;;;;;4.00;1.90;;;;;;;30.36;100.00;100159.00;105863;1268;61130;-75
2023/08/18 11:12:17;;;;;;;8.20;1.30;;;;;;;30.33;98.69;100162.38;105681;1268;61220;-74
2023/08/18 11:14:44;;;;;;;2.40;1.00;;;;;;;30.26;90.67;100158.62;105657;1268;370728;-76